createdAt,value
2018-04-13T00:00:14.305Z,2.13
2018-04-13T00:02:42.667Z,2.03
2018-04-13T00:05:11.033Z,1.97
2018-04-13T00:07:39.438Z,1.80
2018-04-13T00:10:07.790Z,1.77
2018-04-13T00:12:36.222Z,2.20
2018-04-13T00:15:04.572Z,2.10
2018-04-13T00:17:32.915Z,1.97
2018-04-13T00:20:01.270Z,2.20
2018-04-13T00:22:29.617Z,2.20
2018-04-13T00:24:58.014Z,2.23
2018-04-13T00:27:26.396Z,2.10
2018-04-13T00:29:54.814Z,2.27
2018-04-13T00:32:23.366Z,2.17
2018-04-13T00:34:51.799Z,1.97
2018-04-13T00:37:20.181Z,1.70
2018-04-13T00:39:48.532Z,1.70
2018-04-13T00:42:16.921Z,1.93
2018-04-13T00:44:45.273Z,1.80
2018-04-13T00:47:13.723Z,2.17
2018-04-13T00:49:42.087Z,1.70
2018-04-13T00:52:10.461Z,1.87
2018-04-13T00:54:38.827Z,1.70
2018-04-13T00:57:07.210Z,1.90
2018-04-13T00:59:35.621Z,2.03
2018-04-13T01:02:04.060Z,2.50
2018-04-13T01:04:32.419Z,2.50
2018-04-13T01:07:00.765Z,2.37
2018-04-13T01:09:29.166Z,2.70
2018-04-13T01:11:57.595Z,3.07
2018-04-13T01:14:26.045Z,3.20
2018-04-13T01:16:54.405Z,2.50
2018-04-13T01:19:22.867Z,2.70
2018-04-13T01:21:51.243Z,2.57
2018-04-13T01:24:19.835Z,2.67
2018-04-13T01:26:48.214Z,2.40
2018-04-13T01:29:16.598Z,3.00
2018-04-13T01:31:44.989Z,3.13
2018-04-13T01:34:13.374Z,3.10
2018-04-13T01:36:41.785Z,3.37
2018-04-13T01:39:10.140Z,3.93
2018-04-13T01:41:38.506Z,3.97
2018-04-13T01:44:06.865Z,2.57
2018-04-13T01:46:35.342Z,3.13
2018-04-13T01:49:03.741Z,3.27
2018-04-13T01:51:32.100Z,3.57
2018-04-13T01:54:00.524Z,4.23
2018-04-13T01:56:28.868Z,3.63
2018-04-13T01:58:57.226Z,4.10
2018-04-13T02:01:25.581Z,4.10
2018-04-13T02:03:53.931Z,3.90
2018-04-13T02:06:22.298Z,5.00
2018-04-13T02:08:50.671Z,5.20
2018-04-13T02:11:19.034Z,6.50
2018-04-13T02:13:47.402Z,6.13
2018-04-13T02:16:15.761Z,5.77
2018-04-13T02:18:44.128Z,6.60
2018-04-13T02:21:12.492Z,5.20
2018-04-13T02:23:40.842Z,5.50
2018-04-13T02:26:09.362Z,5.53
2018-04-13T02:28:37.837Z,5.37
2018-04-13T02:31:06.337Z,6.20
2018-04-13T02:33:34.760Z,5.90
2018-04-13T02:36:03.198Z,7.53
2018-04-13T02:38:31.611Z,8.17
2018-04-13T02:41:00.035Z,10.43
2018-04-13T02:43:28.407Z,9.93
2018-04-13T02:45:56.772Z,12.30
2018-04-13T02:48:25.189Z,12.70
2018-04-13T02:50:53.806Z,11.40
2018-04-13T02:53:22.213Z,11.30
2018-04-13T02:55:50.596Z,12.37
2018-04-13T02:58:18.997Z,12.40
2018-04-13T03:00:59.353Z,11.73
2018-04-13T03:03:27.701Z,14.43
2018-04-13T03:05:56.113Z,15.00
2018-04-13T03:08:24.503Z,14.90
2018-04-13T03:10:52.850Z,17.80
2018-04-13T03:13:21.266Z,18.40
2018-04-13T03:15:49.641Z,15.97
2018-04-13T03:18:18.050Z,15.50
2018-04-13T03:20:46.423Z,14.40
2018-04-13T03:23:14.784Z,15.10
2018-04-13T03:25:43.166Z,15.50
2018-04-13T03:28:11.540Z,15.63
2018-04-13T03:30:40.056Z,18.47
2018-04-13T03:33:08.463Z,20.03
2018-04-13T03:35:36.862Z,19.00
2018-04-13T03:38:05.339Z,20.67
2018-04-13T03:40:33.790Z,22.67
2018-04-13T03:43:02.195Z,23.10
2018-04-13T03:45:30.609Z,23.83
2018-04-13T03:47:58.981Z,23.73
2018-04-13T03:50:27.389Z,22.83
2018-04-13T03:52:55.821Z,26.93
2018-04-13T03:55:24.217Z,28.83
2018-04-13T03:57:52.664Z,27.17
2018-04-13T04:00:21.064Z,33.20
2018-04-13T04:02:49.464Z,32.40
2018-04-13T04:05:17.861Z,32.73
2018-04-13T04:07:46.222Z,33.67
2018-04-13T04:10:14.649Z,32.73
2018-04-13T04:12:43.009Z,33.97
2018-04-13T04:15:11.369Z,32.93
2018-04-13T04:17:39.729Z,32.77
2018-04-13T04:20:19.858Z,32.83
2018-04-13T04:23:00.145Z,32.13
2018-04-13T04:28:31.473Z,33.47
2018-04-13T04:30:59.833Z,32.47
2018-04-13T04:33:28.223Z,32.80
2018-04-13T04:35:56.601Z,34.27
2018-04-13T04:38:24.989Z,33.30
2018-04-13T04:40:53.425Z,33.27
2018-04-13T04:43:21.802Z,36.37
2018-04-13T04:45:50.171Z,37.57
2018-04-13T04:48:18.549Z,37.20
2018-04-13T04:50:46.917Z,37.27
2018-04-13T04:53:15.312Z,36.77
2018-04-13T04:55:43.690Z,35.93
2018-04-13T04:58:12.775Z,34.83
2018-04-13T05:00:41.161Z,36.73
2018-04-13T05:03:09.563Z,38.30
2018-04-13T05:05:37.971Z,37.40
2018-04-13T05:08:06.350Z,45.17
2018-04-13T05:10:34.714Z,38.33
2018-04-13T05:13:03.085Z,40.33
2018-04-13T05:15:31.482Z,41.23
2018-04-13T05:17:59.867Z,42.17
2018-04-13T05:20:29.198Z,40.10
2018-04-13T05:22:57.556Z,42.67
2018-04-13T05:25:25.923Z,44.10
2018-04-13T05:27:54.290Z,46.93
2018-04-13T05:30:22.665Z,46.00
2018-04-13T05:32:51.058Z,48.73
2018-04-13T05:35:19.539Z,49.13
2018-04-13T05:37:47.883Z,47.77
2018-04-13T05:40:16.403Z,48.30
2018-04-13T05:42:44.846Z,49.20
2018-04-13T05:45:13.246Z,47.20
2018-04-13T05:47:41.612Z,49.00
2018-04-13T05:50:10.431Z,51.93
2018-04-13T05:52:38.896Z,52.67
2018-04-13T05:55:07.297Z,52.63
2018-04-13T05:57:35.824Z,49.47
2018-04-13T06:00:04.206Z,50.97
2018-04-13T06:02:32.656Z,54.37
2018-04-13T06:05:01.039Z,57.17
2018-04-13T06:07:29.482Z,62.77
2018-04-13T06:09:57.882Z,62.00
2018-04-13T06:12:26.353Z,61.53
2018-04-13T06:14:54.831Z,62.30
2018-04-13T06:17:23.400Z,62.80
2018-04-13T06:19:51.887Z,62.73
2018-04-13T06:22:20.289Z,64.47
2018-04-13T06:24:48.834Z,66.63
2018-04-13T06:27:17.236Z,64.40
2018-04-13T06:29:45.756Z,63.67
2018-04-13T06:32:14.177Z,65.97
2018-04-13T06:34:42.581Z,62.87
2018-04-13T06:37:11.003Z,62.83
2018-04-13T06:39:39.414Z,62.70
2018-04-13T06:42:07.892Z,63.63
2018-04-13T06:44:36.299Z,63.53
2018-04-13T06:47:04.730Z,65.00
2018-04-13T06:49:33.119Z,61.43
2018-04-13T06:52:01.488Z,58.93
2018-04-13T06:54:29.917Z,61.07
2018-04-13T06:56:58.300Z,63.43
2018-04-13T06:59:26.681Z,61.53
2018-04-13T07:01:55.060Z,58.60
2018-04-13T07:04:23.464Z,59.90
2018-04-13T07:06:51.939Z,57.30
2018-04-13T07:09:20.349Z,56.93
2018-04-13T07:11:48.769Z,59.57
2018-04-13T07:14:17.195Z,59.30
2018-04-13T07:16:45.611Z,58.20
2018-04-13T07:19:14.902Z,60.27
2018-04-13T07:21:43.289Z,61.97
2018-04-13T07:24:11.714Z,61.10
2018-04-13T07:26:40.194Z,57.77
2018-04-13T07:29:08.601Z,62.57
2018-04-13T07:31:37.053Z,58.67
2018-04-13T07:34:05.957Z,60.53
2018-04-13T07:36:33.922Z,58.17
2018-04-13T07:39:02.375Z,55.70
2018-04-13T07:41:30.744Z,53.10
2018-04-13T07:43:59.172Z,53.10
2018-04-13T07:46:27.588Z,48.93
2018-04-13T07:48:56.063Z,49.37
2018-04-13T07:51:24.627Z,49.93
2018-04-13T07:53:52.861Z,53.00
2018-04-13T07:56:21.259Z,50.47
2018-04-13T07:58:49.648Z,45.07
2018-04-13T08:01:18.098Z,46.47
2018-04-13T08:03:46.478Z,43.73
2018-04-13T08:06:14.867Z,44.80
2018-04-13T08:08:43.238Z,44.87
2018-04-13T08:11:11.611Z,44.60
2018-04-13T08:13:40.047Z,44.70
2018-04-13T08:16:08.433Z,45.20
2018-04-13T08:18:36.822Z,46.80
2018-04-13T08:21:05.194Z,44.50
2018-04-13T08:23:33.585Z,48.90
2018-04-13T08:26:02.022Z,48.13
2018-04-13T08:28:30.441Z,49.53
2018-04-13T08:30:58.858Z,47.90
2018-04-13T08:33:27.219Z,45.60
2018-04-13T08:35:55.627Z,47.17
2018-04-13T08:38:24.162Z,46.50
2018-04-13T08:40:52.573Z,46.00
2018-04-13T08:43:21.049Z,47.90
2018-04-13T08:45:49.471Z,46.10
2018-04-13T08:48:17.861Z,47.30
2018-04-13T08:50:46.414Z,50.30
2018-04-13T08:53:14.795Z,44.57
2018-04-13T08:55:43.237Z,47.10
2018-04-13T08:58:11.666Z,48.30
2018-04-13T09:00:40.885Z,45.60
2018-04-13T09:03:09.325Z,46.23
2018-04-13T09:05:37.729Z,44.90
2018-04-13T09:08:06.184Z,45.80
2018-04-13T09:10:34.584Z,49.70
2018-04-13T09:13:03.051Z,49.27
2018-04-13T09:15:31.454Z,49.57
2018-04-13T09:17:59.842Z,51.07
2018-04-13T09:20:28.332Z,49.50
2018-04-13T09:22:56.955Z,47.83
2018-04-13T09:25:25.356Z,51.83
2018-04-13T09:27:53.796Z,50.73
2018-04-13T09:30:22.196Z,51.77
2018-04-13T09:32:50.815Z,51.97
2018-04-13T09:35:19.371Z,51.27
2018-04-13T09:37:47.808Z,49.47
2018-04-13T09:40:16.206Z,47.60
2018-04-13T09:42:44.602Z,46.50
2018-04-13T09:45:13.042Z,45.63
2018-04-13T09:47:41.448Z,43.10
2018-04-13T09:50:09.864Z,44.77
2018-04-13T09:52:38.259Z,42.80
2018-04-13T09:55:06.959Z,39.50
2018-04-13T09:57:35.369Z,39.33
2018-04-13T10:00:04.191Z,36.77
2018-04-13T10:02:38.021Z,36.93
2018-04-13T10:05:12.212Z,36.27
2018-04-13T10:07:40.611Z,35.67
2018-04-13T10:10:09.128Z,35.00
2018-04-13T10:12:37.705Z,34.27
2018-04-13T10:15:06.085Z,31.70
2018-04-13T10:17:34.491Z,30.93
2018-04-13T10:20:02.901Z,30.37
2018-04-13T10:22:31.321Z,31.40
2018-04-13T10:24:59.783Z,31.07
2018-04-13T10:27:28.165Z,27.17
2018-04-13T10:29:56.557Z,27.57
2018-04-13T10:32:24.945Z,26.50
2018-04-13T10:34:53.310Z,24.20
2018-04-13T10:37:21.854Z,23.60
2018-04-13T10:39:50.221Z,22.37
2018-04-13T10:42:18.579Z,21.90
2018-04-13T10:44:47.002Z,20.33
2018-04-13T10:47:15.443Z,18.13
2018-04-13T10:49:43.869Z,18.20
2018-04-13T10:52:12.235Z,15.80
2018-04-13T10:54:41.553Z,19.17
2018-04-13T10:57:09.942Z,18.37
2018-04-13T10:59:38.583Z,17.63
2018-04-13T11:02:07.530Z,18.50
2018-04-13T11:04:35.967Z,20.20
2018-04-13T11:07:04.373Z,19.20
2018-04-13T11:09:32.788Z,18.97
2018-04-13T11:12:01.212Z,20.20
2018-04-13T11:14:29.667Z,19.63
2018-04-13T11:16:58.070Z,20.50
2018-04-13T11:19:26.538Z,19.33
2018-04-13T11:21:55.050Z,17.73
2018-04-13T11:24:23.623Z,19.27
2018-04-13T11:26:53.364Z,19.37
2018-04-13T11:29:21.786Z,18.00
2018-04-13T11:31:50.385Z,16.17
2018-04-13T11:34:19.182Z,17.17
2018-04-13T11:36:47.619Z,16.73
2018-04-13T11:39:16.030Z,16.10
2018-04-13T11:41:44.441Z,14.50
2018-04-13T11:44:12.851Z,14.90
2018-04-13T11:46:41.267Z,16.90
2018-04-13T11:49:09.741Z,16.10
2018-04-13T11:51:38.228Z,16.33
2018-04-13T11:54:06.923Z,17.33
2018-04-13T11:56:35.322Z,16.43
2018-04-13T11:59:03.762Z,15.20
2018-04-13T12:01:32.316Z,14.90
2018-04-13T12:04:00.972Z,15.47
2018-04-13T12:06:29.457Z,14.23
2018-04-13T12:08:57.902Z,14.73
2018-04-13T12:11:26.804Z,14.67
2018-04-13T12:13:55.748Z,13.30
2018-04-13T12:16:24.160Z,14.90
2018-04-13T12:18:52.723Z,16.73
2018-04-13T12:21:21.188Z,12.27
2018-04-13T12:23:49.787Z,12.63
2018-04-13T12:26:18.214Z,11.20
2018-04-13T12:28:46.677Z,12.23
2018-04-13T12:31:15.223Z,11.00
2018-04-13T12:33:46.671Z,9.37
2018-04-13T12:36:15.096Z,8.80
2018-04-13T12:38:43.514Z,9.53
2018-04-13T12:41:12.658Z,8.43
2018-04-13T12:43:41.070Z,7.10
2018-04-13T12:46:09.470Z,6.40
2018-04-13T12:48:37.892Z,5.70
2018-04-13T12:51:06.274Z,8.03
2018-04-13T12:53:34.829Z,7.67
2018-04-13T12:56:03.308Z,9.50
2018-04-13T12:58:31.682Z,9.73
2018-04-13T13:01:00.066Z,10.80
2018-04-13T13:03:28.438Z,10.20
2018-04-13T13:05:56.874Z,11.57
2018-04-13T13:08:25.266Z,12.13
2018-04-13T13:10:53.671Z,13.90
2018-04-13T13:13:22.106Z,16.47
2018-04-13T13:15:50.530Z,15.97
2018-04-13T13:18:18.902Z,17.07
2018-04-13T13:20:47.323Z,18.43
2018-04-13T13:23:15.719Z,20.93
2018-04-13T13:25:44.147Z,21.57
2018-04-13T13:28:13.711Z,24.23
2018-04-13T13:30:42.160Z,22.37
2018-04-13T13:33:10.543Z,24.37
2018-04-13T13:35:38.928Z,22.60
2018-04-13T13:38:07.344Z,24.33
2018-04-13T13:40:35.795Z,25.90
2018-04-13T13:43:04.189Z,24.00
2018-04-13T13:45:32.585Z,25.60
2018-04-13T13:48:00.967Z,28.13
2018-04-13T13:50:29.329Z,26.77
2018-04-13T13:52:57.751Z,28.60
2018-04-13T13:55:26.231Z,26.80
2018-04-13T13:57:54.667Z,28.00
2018-04-13T14:00:23.031Z,28.87
2018-04-13T14:02:51.473Z,29.70
2018-04-13T14:05:19.865Z,27.70
2018-04-13T14:07:48.344Z,30.03
2018-04-13T14:10:16.774Z,28.83
2018-04-13T14:12:45.153Z,27.30
2018-04-13T14:15:13.524Z,26.00
2018-04-13T14:17:41.901Z,25.40
2018-04-13T14:20:10.263Z,27.27
2018-04-13T14:22:38.709Z,26.40
2018-04-13T14:25:07.079Z,25.70
2018-04-13T14:27:35.539Z,25.70
2018-04-13T14:30:04.003Z,25.57
2018-04-13T14:32:32.477Z,25.97
2018-04-13T14:35:00.977Z,22.90
2018-04-13T14:37:29.449Z,23.20
2018-04-13T14:39:57.846Z,20.80
2018-04-13T14:42:26.205Z,20.47
2018-04-13T14:44:54.589Z,20.40
2018-04-13T14:47:22.962Z,19.60
2018-04-13T14:49:51.340Z,20.30
2018-04-13T14:52:19.741Z,20.17
2018-04-13T14:54:48.122Z,18.83
2018-04-13T14:57:16.541Z,19.40
2018-04-13T14:59:44.929Z,20.27
2018-04-13T15:02:13.354Z,18.90
2018-04-13T15:04:41.744Z,20.40
2018-04-13T15:07:10.105Z,21.80
2018-04-13T15:09:38.502Z,21.00
2018-04-13T15:12:06.893Z,21.07
2018-04-13T15:14:35.304Z,21.40
2018-04-13T15:17:03.670Z,21.03
2018-04-13T15:19:32.058Z,22.93
2018-04-13T15:22:00.566Z,20.90
2018-04-13T15:24:29.013Z,23.60
2018-04-13T15:26:57.406Z,24.20
2018-04-13T15:29:25.763Z,26.80
2018-04-13T15:31:54.135Z,21.93
2018-04-13T15:34:22.616Z,23.70
2018-04-13T15:36:51.199Z,22.17
2018-04-13T15:39:19.712Z,20.60
2018-04-13T15:41:48.118Z,20.70
2018-04-13T15:44:16.534Z,22.77
2018-04-13T15:46:45.027Z,19.80
2018-04-13T15:49:13.689Z,19.87
2018-04-13T15:51:42.323Z,20.53
2018-04-13T15:54:10.687Z,18.60
2018-04-13T15:56:39.065Z,17.00
2018-04-13T15:59:07.443Z,18.13
2018-04-13T16:01:35.920Z,18.80
2018-04-13T16:04:04.274Z,19.20
2018-04-13T16:06:32.634Z,18.50
2018-04-13T16:09:01.022Z,17.13
2018-04-13T16:11:29.505Z,17.93
2018-04-13T16:13:57.972Z,16.97
2018-04-13T16:16:26.419Z,16.70
2018-04-13T16:18:54.780Z,17.03
2018-04-13T16:21:23.169Z,16.73
2018-04-13T16:23:51.530Z,12.93
2018-04-13T16:26:19.953Z,12.30
2018-04-13T16:28:48.328Z,12.87
2018-04-13T16:31:16.713Z,12.70
2018-04-13T16:33:45.085Z,10.57
2018-04-13T16:36:13.604Z,9.70
2018-04-13T16:38:41.969Z,8.70
2018-04-13T16:41:10.339Z,5.67
2018-04-13T16:43:38.711Z,6.30
2018-04-13T16:46:07.145Z,6.60
2018-04-13T16:48:35.775Z,4.23
2018-04-13T16:51:04.133Z,3.47
2018-04-13T16:53:32.710Z,2.40
2018-04-13T16:56:01.073Z,2.00
2018-04-13T16:58:29.483Z,2.67
2018-04-13T17:00:57.871Z,2.10
2018-04-13T17:03:26.350Z,2.00
2018-04-13T17:05:54.749Z,2.00
2018-04-13T17:08:23.241Z,1.60
2018-04-13T17:10:51.780Z,1.90
2018-04-13T17:13:20.212Z,1.90
2018-04-13T17:15:48.595Z,2.00
2018-04-13T17:18:17.061Z,3.00
2018-04-13T17:20:45.544Z,3.70
2018-04-13T17:23:14.100Z,4.87
2018-04-13T17:25:42.505Z,5.50
2018-04-13T17:28:10.900Z,6.70
2018-04-13T17:30:39.397Z,6.73
2018-04-13T17:33:07.805Z,7.60
2018-04-13T17:35:36.204Z,9.33
2018-04-13T17:38:04.757Z,8.70
2018-04-13T17:40:33.171Z,11.33
2018-04-13T17:43:01.514Z,10.93
2018-04-13T17:45:29.920Z,9.97
2018-04-13T17:47:58.391Z,12.40
2018-04-13T17:50:26.915Z,11.07
2018-04-13T17:52:55.309Z,11.77
2018-04-13T17:55:23.825Z,12.30
2018-04-13T17:57:52.191Z,12.70
2018-04-13T18:00:20.626Z,13.90
2018-04-13T18:02:49.180Z,13.77
2018-04-13T18:05:17.566Z,13.00
2018-04-13T18:07:45.973Z,13.60
2018-04-13T18:10:14.345Z,16.33
2018-04-13T18:12:42.723Z,14.17
2018-04-13T18:15:11.142Z,14.30
2018-04-13T18:17:39.524Z,15.47
2018-04-13T18:20:08.011Z,15.80
2018-04-13T18:22:36.409Z,16.67
2018-04-13T18:25:04.822Z,15.60
2018-04-13T18:27:33.233Z,15.17
2018-04-13T18:30:01.692Z,14.80
2018-04-13T18:32:30.311Z,15.00
2018-04-13T18:34:58.713Z,16.40
2018-04-13T18:37:27.125Z,16.30
2018-04-13T18:39:55.509Z,15.77
2018-04-13T18:42:24.040Z,16.10
2018-04-13T18:44:52.445Z,16.90
2018-04-13T18:47:20.868Z,16.10
2018-04-13T18:49:49.297Z,18.40
2018-04-13T18:52:17.681Z,19.97
2018-04-13T18:54:46.553Z,18.33
2018-04-13T18:57:14.995Z,17.63
2018-04-13T18:59:43.418Z,17.50
2018-04-13T19:02:11.781Z,17.80
2018-04-13T19:04:40.160Z,17.97
2018-04-13T19:07:08.574Z,18.90
2018-04-13T19:09:36.964Z,17.67
2018-04-13T19:12:05.443Z,16.40
2018-04-13T19:14:34.226Z,18.57
2018-04-13T19:17:02.630Z,18.43
2018-04-13T19:19:31.031Z,19.30
2018-04-13T19:21:59.423Z,18.60
2018-04-13T19:24:27.989Z,18.50
2018-04-13T19:26:56.389Z,18.97
2018-04-13T19:29:24.796Z,18.33
2018-04-13T19:31:53.191Z,18.63
2018-04-13T19:34:21.587Z,19.40
2018-04-13T19:36:50.052Z,18.53
2018-04-13T19:39:18.546Z,20.30
2018-04-13T19:41:47.065Z,18.93
2018-04-13T19:44:15.493Z,18.57
2018-04-13T19:46:44.021Z,19.30
2018-04-13T19:49:12.410Z,18.57
2018-04-13T19:51:40.816Z,17.13
2018-04-13T19:54:09.266Z,19.00
2018-04-13T19:56:37.694Z,18.50
2018-04-13T19:59:06.184Z,18.30
2018-04-13T20:01:34.588Z,17.63
2018-04-13T20:04:02.957Z,18.30
2018-04-13T20:06:31.353Z,17.67
2018-04-13T20:08:59.713Z,16.57
2018-04-13T20:11:28.159Z,17.43
2018-04-13T20:13:56.529Z,18.03
2018-04-13T20:16:24.922Z,16.50
2018-04-13T20:18:53.306Z,17.07
2018-04-13T20:21:21.673Z,16.20
2018-04-13T20:23:50.111Z,17.80
2018-04-13T20:26:18.461Z,17.40
2018-04-13T20:28:46.856Z,18.10
2018-04-13T20:31:15.249Z,18.60
2018-04-13T20:33:43.643Z,19.43
2018-04-13T20:36:12.077Z,18.80
2018-04-13T20:38:40.478Z,21.43
2018-04-13T20:41:08.846Z,22.03
2018-04-13T20:43:37.231Z,21.33
2018-04-13T20:46:05.593Z,20.90
2018-04-13T20:48:34.354Z,22.70
2018-04-13T20:51:02.771Z,22.00
2018-04-13T20:53:31.289Z,23.00
2018-04-13T20:55:59.690Z,22.33
2018-04-13T20:58:28.090Z,24.00
2018-04-13T21:00:56.475Z,25.33
2018-04-13T21:03:24.888Z,25.37
2018-04-13T21:05:53.441Z,25.20
2018-04-13T21:08:21.855Z,26.10
2018-04-13T21:10:50.252Z,28.80
2018-04-13T21:13:18.805Z,29.67
2018-04-13T21:15:47.205Z,31.40
2018-04-13T21:18:15.594Z,33.23
2018-04-13T21:20:43.970Z,33.00
2018-04-13T21:23:12.425Z,34.00
2018-04-13T21:25:40.822Z,33.50
2018-04-13T21:28:09.266Z,34.63
2018-04-13T21:30:37.657Z,34.23
2018-04-13T21:33:06.049Z,34.13
2018-04-13T21:35:34.542Z,34.83
2018-04-13T21:38:02.933Z,33.80
2018-04-13T21:40:31.331Z,34.10
2018-04-13T21:42:59.721Z,38.50
2018-04-13T21:45:28.117Z,38.33
2018-04-13T21:47:56.578Z,35.70
2018-04-13T21:50:24.976Z,38.40
2018-04-13T21:52:53.377Z,38.20
2018-04-13T21:55:21.850Z,37.33
2018-04-13T21:57:50.257Z,39.97
2018-04-13T22:00:18.804Z,39.60
2018-04-13T22:02:47.197Z,42.77
2018-04-13T22:05:15.603Z,42.13
2018-04-13T22:07:44.003Z,43.17
2018-04-13T22:10:12.416Z,41.67
2018-04-13T22:12:52.607Z,43.57
2018-04-13T22:15:26.915Z,43.27
2018-04-13T22:17:55.362Z,44.27
2018-04-13T22:20:23.725Z,44.90
2018-04-13T22:22:52.197Z,45.93
2018-04-13T22:25:20.693Z,47.07
2018-04-13T22:27:49.061Z,46.33
2018-04-13T22:30:17.682Z,47.60
2018-04-13T22:32:46.043Z,47.50
2018-04-13T22:35:14.454Z,47.03
2018-04-13T22:37:42.822Z,49.63
2018-04-13T22:40:11.228Z,48.30
2018-04-13T22:42:39.727Z,49.00
2018-04-13T22:45:08.144Z,47.90
2018-04-13T22:47:36.502Z,46.37
2018-04-13T22:50:04.887Z,45.37
2018-04-13T22:52:33.254Z,47.90
2018-04-13T22:55:01.642Z,48.20
2018-04-13T22:57:30.041Z,47.87
2018-04-13T22:59:58.447Z,48.10
2018-04-13T23:02:26.813Z,47.10
2018-04-13T23:04:55.260Z,48.83
2018-04-13T23:07:23.625Z,46.80
2018-04-13T23:09:52.021Z,47.60
2018-04-13T23:12:20.434Z,48.00
2018-04-13T23:14:48.809Z,47.03
2018-04-13T23:17:17.233Z,47.90
2018-04-13T23:19:45.616Z,50.97
2018-04-13T23:22:25.738Z,48.07
2018-04-13T23:24:54.154Z,49.67
2018-04-13T23:27:22.533Z,50.43
2018-04-13T23:29:50.898Z,52.30
2018-04-13T23:32:19.303Z,50.87
2018-04-13T23:34:47.756Z,52.77
2018-04-13T23:37:16.157Z,48.60
2018-04-13T23:39:44.556Z,52.33
2018-04-13T23:42:12.991Z,49.87
2018-04-13T23:44:41.390Z,46.13
2018-04-13T23:47:09.818Z,46.93
2018-04-13T23:49:38.210Z,49.67
2018-04-13T23:52:06.666Z,48.03
2018-04-13T23:54:35.054Z,46.20
2018-04-13T23:57:03.465Z,47.50
2018-04-13T23:59:31.958Z,46.87
